Time;durP1;ratioP1;P1;durP2;ratioP2;P2;SDS_P1;SDS_P2;PMS_P1;PMS_P2;Temp;Humidity;BMP_temperature;BMP_pressure;BME280_temperature;BME280_humidity;BME280_pressure;Samples;Min_cycle;Max_cycle;Signal;HPM_P1;HPM_P2
2023/01/24 00:01:24;;;;;;;0.40;0.30;;;;;;;10.55;100.00;96194.34;5114210;28;20434;-57
2023/01/24 00:03:52;;;;;;;0.30;0.20;;;;;;;10.54;100.00;96198.06;5114261;28;20444;-57
2023/01/24 00:06:22;;;;;;;2.63;0.87;;;;;;;10.49;100.00;96200.66;5113884;28;20440;-57
2023/01/24 00:08:51;;;;;;;0.40;0.40;;;;;;;10.47;100.00;96207.25;5113729;28;20442;-57
2023/01/24 00:11:19;;;;;;;0.40;0.37;;;;;;;10.50;100.00;96206.75;5114087;28;20438;-56
2023/01/24 00:13:47;;;;;;;1.63;0.30;;;;;;;10.47;100.00;96202.75;5113808;28;20458;-56
2023/01/24 00:16:21;;;;;;;0.40;0.30;;;;;;;10.46;100.00;96201.13;5113269;28;20462;-57
2023/01/24 00:18:51;;;;;;;0.67;0.67;;;;;;;10.32;100.00;96185.84;5113509;28;20919;-56
2023/01/24 00:21:25;;;;;;;0.30;0.20;;;;;;;10.01;100.00;96136.94;5112732;28;20521;-57
2023/01/24 00:23:55;;;;;;;1.17;1.07;;;;;;;9.79;100.00;96121.00;5112945;28;20509;-57
2023/01/24 00:26:25;;;;;;;0.37;0.27;;;;;;;10.42;100.00;96197.38;5112962;28;20434;-57
2023/01/24 00:28:54;;;;;;;0.73;0.73;;;;;;;10.40;100.00;96196.03;5113154;28;20426;-57
2023/01/24 00:31:22;;;;;;;0.50;0.40;;;;;;;10.37;100.00;96193.88;5112720;28;20473;-57
2023/01/24 00:33:50;;;;;;;0.50;0.30;;;;;;;10.34;100.00;96202.31;5113315;28;20465;-56
2023/01/24 00:36:19;;;;;;;0.30;0.30;;;;;;;10.34;100.00;96202.31;5113127;28;21136;-57
2023/01/24 00:38:49;;;;;;;0.40;0.30;;;;;;;10.19;100.00;96179.06;5113379;28;20512;-56
2023/01/24 00:41:18;;;;;;;0.30;0.20;;;;;;;10.34;100.00;96197.00;5113405;28;20431;-57
2023/01/24 00:43:46;;;;;;;0.60;0.60;;;;;;;10.35;100.00;96201.25;5113772;28;20417;-57
2023/01/24 00:46:15;;;;;;;0.40;0.30;;;;;;;10.23;100.00;96184.66;5112732;28;20452;-57
2023/01/24 00:48:43;;;;;;;0.67;0.67;;;;;;;10.28;100.00;96197.97;5113023;28;20468;-56
2023/01/24 00:51:11;;;;;;;1.40;1.00;;;;;;;10.27;100.00;96193.75;5113056;28;20487;-56
2023/01/24 00:53:40;;;;;;;0.57;0.40;;;;;;;10.31;100.00;96198.28;5112118;28;20437;-56
2023/01/24 00:56:10;;;;;;;0.60;0.60;;;;;;;10.24;100.00;96186.28;5112932;28;20476;-57
2023/01/24 00:58:38;;;;;;;0.40;0.40;;;;;;;10.29;100.00;96200.41;5112934;28;20436;-56
2023/01/24 01:01:06;;;;;;;0.60;0.37;;;;;;;10.35;100.00;96201.25;5112319;28;20524;-57
2023/01/24 01:03:35;;;;;;;0.30;0.30;;;;;;;9.86;100.00;96201.09;5113097;28;20449;-56
2023/01/24 01:06:05;;;;;;;0.43;0.43;;;;;;;9.78;100.00;96204.16;5112835;28;20436;-56
2023/01/24 01:08:34;;;;;;;0.70;0.50;;;;;;;9.71;100.00;96214.09;5112479;28;20516;-57
2023/01/24 01:11:02;;;;;;;0.43;0.30;;;;;;;9.90;100.00;96212.78;5112413;28;20472;-57
2023/01/24 01:13:32;;;;;;;0.70;0.70;;;;;;;9.60;100.00;96214.97;5112858;28;20865;-57
2023/01/24 01:16:02;;;;;;;1.27;1.27;;;;;;;9.78;100.00;96204.16;5112537;28;20532;-57
2023/01/24 01:18:30;;;;;;;0.70;0.70;;;;;;;9.84;100.00;96219.03;5112842;28;20856;-57
2023/01/24 01:20:59;;;;;;;0.70;0.70;;;;;;;9.93;100.00;96217.59;5112181;28;20435;-57
2023/01/24 01:23:27;;;;;;;1.13;1.13;;;;;;;9.73;100.00;96217.31;5112832;28;20797;-57
2023/01/24 01:25:59;;;;;;;0.50;0.50;;;;;;;9.62;100.00;96220.03;5112800;28;20441;-58
2023/01/24 01:28:30;;;;;;;0.50;0.50;;;;;;;9.63;100.00;96217.16;5112430;28;20490;-55
2023/01/24 01:31:00;;;;;;;0.80;0.80;;;;;;;9.91;100.00;96213.59;5112272;28;20468;-55
2023/01/24 01:33:29;;;;;;;0.70;0.70;;;;;;;9.99;100.00;96219.28;5112021;28;20629;-56
2023/01/24 01:35:57;;;;;;;2.20;1.57;;;;;;;9.69;100.00;96232.06;5112208;28;20573;-56
2023/01/24 01:38:27;;;;;;;0.30;0.20;;;;;;;9.75;100.00;96220.50;5112217;28;20431;-56
2023/01/24 01:40:56;;;;;;;0.37;0.30;;;;;;;9.98;100.00;96204.44;5112364;28;20429;-56
2023/01/24 01:43:27;;;;;;;0.53;0.53;;;;;;;10.11;100.00;96219.19;5112251;28;20449;-56
2023/01/24 01:45:58;;;;;;;3.50;1.13;;;;;;;10.12;100.00;96211.00;5112040;28;20429;-56
2023/01/24 01:48:36;;;;;;;3.07;0.30;;;;;;;9.95;100.00;96214.72;5112447;28;20807;-56
2023/01/24 01:51:13;;;;;;;0.40;0.30;;;;;;;9.86;100.00;96226.75;5112089;28;20515;-56
2023/01/24 01:53:48;;;;;;;0.50;0.50;;;;;;;9.91;100.00;96221.53;5111965;28;20514;-56
2023/01/24 01:56:25;;;;;;;3.30;0.77;;;;;;;9.71;100.00;96208.81;5111232;28;20472;-56
2023/01/24 01:58:58;;;;;;;0.30;0.30;;;;;;;9.46;100.00;96219.00;5111335;28;20971;-56
2023/01/24 02:01:27;;;;;;;1.30;0.60;;;;;;;9.42;100.00;96223.16;5111790;28;20930;-56
2023/01/24 02:04:04;;;;;;;2.70;0.80;;;;;;;9.51;100.00;96225.16;5111884;28;20546;-56
2023/01/24 02:06:46;;;;;;;8.70;1.67;;;;;;;9.35;100.00;96219.84;5111552;28;20982;-56
2023/01/24 02:09:18;;;;;;;0.93;0.93;;;;;;;9.73;100.00;96216.50;5111460;28;20445;-56
2023/01/24 02:11:47;;;;;;;0.50;0.30;;;;;;;9.84;100.00;96221.69;5111560;28;20429;-56
2023/01/24 02:17:04;;;;;;;0.70;0.50;;;;;;;9.80;100.00;96223.22;5111693;28;20496;-56
2023/01/24 02:19:59;;;;;;;0.50;0.50;;;;;;;9.57;100.00;96229.50;5111314;28;20432;-56
2023/01/24 02:22:40;;;;;;;0.40;0.30;;;;;;;9.53;100.00;96224.94;5111435;28;20789;-56
2023/01/24 02:25:18;;;;;;;0.63;0.60;;;;;;;9.83;100.00;96238.66;5111602;28;20431;-56
2023/01/24 02:27:48;;;;;;;0.50;0.50;;;;;;;9.57;100.00;96231.34;5111784;28;20436;-56
2023/01/24 02:30:16;;;;;;;0.30;0.30;;;;;;;9.48;100.00;96233.59;5111519;28;20455;-56
2023/01/24 02:32:45;;;;;;;4.93;0.40;;;;;;;9.50;100.00;96220.09;5111771;28;20464;-56
2023/01/24 02:35:28;;;;;;;0.70;0.70;;;;;;;9.51;100.00;96203.97;5111729;28;20435;-56
2023/01/24 02:37:58;;;;;;;0.47;0.37;;;;;;;9.54;100.00;96221.22;5111489;28;20441;-56
2023/01/24 02:40:30;;;;;;;0.40;0.30;;;;;;;9.29;100.00;96216.31;5111080;28;20420;-56
2023/01/24 02:43:03;;;;;;;0.40;0.37;;;;;;;8.95;100.00;96223.38;5111202;28;20426;-56
2023/01/24 02:45:34;;;;;;;0.30;0.20;;;;;;;9.35;100.00;96230.44;5111652;28;20498;-56
2023/01/24 02:48:03;;;;;;;0.50;0.50;;;;;;;9.58;100.00;96225.81;5111214;28;20432;-56
2023/01/24 02:53:29;;;;;;;0.30;0.30;;;;;;;9.19;100.00;96207.41;5111764;28;20425;-56
2023/01/24 02:53:30;;;;;;;0.67;0.67;;;;;;;9.00;100.00;96188.31;5110954;28;20520;-56
2023/01/24 02:58:50;;;;;;;0.40;0.30;;;;;;;9.30;100.00;96211.84;5110870;28;20439;-57
2023/01/24 03:01:20;;;;;;;0.30;0.30;;;;;;;9.46;100.00;96211.06;5110979;28;20824;-57
2023/01/24 03:03:48;;;;;;;1.17;1.17;;;;;;;9.81;100.00;96216.91;5111322;28;20495;-57
2023/01/24 03:06:18;;;;;;;0.30;0.30;;;;;;;9.49;100.00;96218.50;5111875;28;20478;-57
2023/01/24 03:08:46;;;;;;;0.33;0.23;;;;;;;9.23;100.00;96222.59;5110195;28;20527;-57
2023/01/24 03:11:14;;;;;;;0.77;0.73;;;;;;;9.23;100.00;96221.78;5111043;28;20999;-57
2023/01/24 03:35:58;;;;;;;0.40;0.30;;;;;;;9.88;100.00;96206.13;5114607;28;20472;-58
2023/01/24 03:41:12;;;;;;;0.30;0.27;;;;;;;9.69;100.00;96196.88;5114160;28;20471;-57
2023/01/24 03:43:40;;;;;;;0.40;0.30;;;;;;;9.76;100.00;96197.50;5114476;28;20456;-57
2023/01/24 03:46:09;;;;;;;0.30;0.20;;;;;;;9.61;100.00;96179.53;5114691;28;20439;-57
2023/01/24 03:48:38;;;;;;;0.30;0.27;;;;;;;9.68;100.00;96185.47;5114526;28;20469;-58
2023/01/24 03:53:52;;;;;;;0.50;0.40;;;;;;;9.81;100.00;96202.88;5113736;28;20436;-57
2023/01/24 03:56:21;;;;;;;0.30;0.20;;;;;;;9.62;100.00;96167.91;5113245;28;20488;-58
2023/01/24 03:58:53;;;;;;;0.40;0.40;;;;;;;9.73;100.00;96193.47;5113925;28;20499;-58
2023/01/24 04:01:21;;;;;;;0.30;0.27;;;;;;;9.65;100.00;96193.88;5113623;28;20932;-57
2023/01/24 04:03:51;;;;;;;0.70;0.70;;;;;;;9.37;100.00;96196.59;5113945;28;20987;-57
2023/01/24 04:06:19;;;;;;;0.30;0.20;;;;;;;9.36;100.00;96195.78;5113795;28;20417;-57
2023/01/24 04:08:49;;;;;;;0.40;0.40;;;;;;;9.32;100.00;96184.09;5113780;28;20430;-57
2023/01/24 04:11:17;;;;;;;0.30;0.20;;;;;;;9.27;100.00;96180.56;5113381;28;20480;-57
2023/01/24 04:13:45;;;;;;;0.30;0.20;;;;;;;9.06;100.00;96184.72;5113802;28;20916;-57
2023/01/24 04:16:14;;;;;;;0.50;0.37;;;;;;;9.37;100.00;96192.13;5113891;28;20500;-57
2023/01/24 04:18:44;;;;;;;0.40;0.40;;;;;;;9.40;100.00;96201.44;5113733;28;20500;-58
2023/01/24 04:21:14;;;;;;;0.53;0.40;;;;;;;9.46;100.00;96182.72;5113734;28;20801;-57
2023/01/24 04:23:42;;;;;;;0.40;0.20;;;;;;;9.60;100.00;96191.16;5113623;28;20837;-58
2023/01/24 04:26:10;;;;;;;0.40;0.30;;;;;;;9.63;100.00;96189.88;5113721;28;20444;-57
2023/01/24 04:28:39;;;;;;;0.77;0.77;;;;;;;9.59;100.00;96197.47;5113573;28;20517;-57
2023/01/24 04:31:07;;;;;;;0.50;0.50;;;;;;;9.17;100.00;96186.50;5113461;28;20432;-57
2023/01/24 04:33:35;;;;;;;0.30;0.30;;;;;;;9.57;100.00;96202.22;5113386;28;20433;-57
2023/01/24 04:36:04;;;;;;;0.30;0.20;;;;;;;9.63;100.00;96209.22;5113081;28;20433;-57
2023/01/24 04:38:34;;;;;;;2.50;2.20;;;;;;;9.01;100.00;96207.59;5113229;28;20926;-58
2023/01/24 04:41:03;;;;;;;0.40;0.33;;;;;;;9.13;100.00;96203.91;5113114;28;20461;-57
2023/01/24 04:43:31;;;;;;;0.93;0.93;;;;;;;8.74;100.00;96207.38;5113457;28;20491;-57
2023/01/24 04:46:00;;;;;;;3.27;0.90;;;;;;;8.53;100.00;96216.75;5113504;28;20457;-57
2023/01/24 04:48:28;;;;;;;0.70;0.40;;;;;;;8.41;100.00;96213.34;5113013;28;20434;-57
2023/01/24 04:50:59;;;;;;;0.60;0.50;;;;;;;8.42;100.00;96214.16;5113542;28;20428;-57
2023/01/24 04:53:30;;;;;;;0.30;0.20;;;;;;;8.32;100.00;96217.41;5112790;28;20426;-57
2023/01/24 04:56:03;;;;;;;0.30;0.20;;;;;;;8.54;100.00;96221.00;5113001;28;20460;-57
2023/01/24 04:58:32;;;;;;;0.60;0.50;;;;;;;8.47;100.00;96219.53;5112558;28;20553;-57
2023/01/24 05:01:00;;;;;;;0.63;0.63;;;;;;;8.90;100.00;96223.28;5112513;28;20430;-58
2023/01/24 05:03:31;;;;;;;0.30;0.20;;;;;;;8.85;100.00;96219.78;5113218;28;20438;-57
2023/01/24 05:05:59;;;;;;;0.30;0.20;;;;;;;9.05;100.00;96224.63;5113134;28;20435;-57
2023/01/24 05:08:28;;;;;;;0.93;0.93;;;;;;;9.20;100.00;96230.19;5113135;28;20420;-58
2023/01/24 05:10:56;;;;;;;0.40;0.40;;;;;;;9.22;100.00;96236.84;5112507;28;20497;-57
2023/01/24 05:13:26;;;;;;;0.40;0.40;;;;;;;9.17;100.00;96244.69;5111721;28;20438;-58
2023/01/24 05:15:57;;;;;;;0.30;0.20;;;;;;;8.74;100.00;96165.09;5112705;28;20430;-57
2023/01/24 05:18:30;;;;;;;0.40;0.30;;;;;;;9.19;100.00;96244.44;5112527;28;20472;-58
2023/01/24 05:21:08;;;;;;;0.40;0.40;;;;;;;9.12;100.00;96244.59;5112521;28;20463;-58
2023/01/24 05:23:36;;;;;;;0.30;0.20;;;;;;;9.15;100.00;96243.31;5112489;28;20446;-57
2023/01/24 05:26:05;;;;;;;1.20;1.20;;;;;;;9.20;100.00;96249.50;5111469;28;20440;-57
2023/01/24 05:28:35;;;;;;;0.90;0.33;;;;;;;8.81;100.00;96193.00;5112052;28;20523;-56
2023/01/24 05:31:08;;;;;;;0.80;0.80;;;;;;;7.61;100.00;96048.78;5112461;28;20452;-58
2023/01/24 05:33:37;;;;;;;0.87;0.87;;;;;;;8.76;100.00;96263.44;5111454;28;20465;-57
2023/01/24 05:36:08;;;;;;;0.50;0.50;;;;;;;8.63;100.00;96247.84;5111802;28;20947;-57
2023/01/24 05:38:36;;;;;;;0.60;0.60;;;;;;;8.83;100.00;96258.81;5111812;28;20501;-57
2023/01/24 05:41:07;;;;;;;0.80;0.80;;;;;;;8.83;100.00;96267.56;5111850;28;20440;-57
2023/01/24 05:43:43;;;;;;;0.50;0.50;;;;;;;8.86;100.00;96263.66;5111975;28;20520;-58
2023/01/24 05:46:13;;;;;;;4.23;1.67;;;;;;;8.66;100.00;96236.81;5111906;28;20459;-58
2023/01/24 05:48:42;;;;;;;0.80;0.80;;;;;;;8.98;100.00;96277.63;5111754;28;20445;-58
2023/01/24 05:51:12;;;;;;;1.87;1.77;;;;;;;8.90;100.00;96278.81;5111901;28;20428;-59
2023/01/24 05:53:42;;;;;;;1.00;1.00;;;;;;;8.72;100.00;96249.13;5112080;28;20445;-58
2023/01/24 05:56:13;;;;;;;0.83;0.83;;;;;;;8.52;100.00;96289.16;5111732;28;20416;-58
2023/01/24 05:58:44;;;;;;;0.47;0.47;;;;;;;8.66;100.00;96289.69;5111654;28;20565;-58
2023/01/24 06:01:16;;;;;;;1.07;0.60;;;;;;;8.62;100.00;96296.47;5111925;28;20499;-58
2023/01/24 06:03:45;;;;;;;0.70;0.70;;;;;;;8.58;100.00;96295.31;5111673;28;20517;-58
2023/01/24 06:06:17;;;;;;;1.13;1.00;;;;;;;8.26;100.00;96287.78;5111265;28;20426;-58
2023/01/24 06:08:45;;;;;;;1.27;0.50;;;;;;;8.28;100.00;96298.13;5111742;28;20461;-58
2023/01/24 06:11:16;;;;;;;0.60;0.53;;;;;;;8.48;100.00;96303.84;5110927;28;20836;-58
2023/01/24 06:13:46;;;;;;;0.40;0.40;;;;;;;8.60;100.00;96307.25;5111562;28;20437;-58
2023/01/24 06:16:17;;;;;;;0.40;0.30;;;;;;;8.68;100.00;96314.84;5112037;28;20424;-58
2023/01/24 06:18:46;;;;;;;0.77;0.77;;;;;;;8.74;100.00;96313.91;5112028;28;20472;-58
2023/01/24 06:21:28;;;;;;;0.60;0.60;;;;;;;8.70;100.00;96320.69;5111754;28;20436;-58
2023/01/24 06:23:56;;;;;;;0.47;0.40;;;;;;;8.49;100.00;96320.50;5111890;28;20828;-58
2023/01/24 06:26:25;;;;;;;1.53;0.93;;;;;;;8.38;100.00;96326.59;5110987;28;20460;-58
2023/01/24 06:28:55;;;;;;;4.03;2.57;;;;;;;8.38;100.00;96334.50;5111196;28;20505;-57
2023/01/24 06:31:36;;;;;;;4.40;1.40;;;;;;;8.71;100.00;96334.72;5111338;28;20493;-57
2023/01/24 06:34:37;;;;;;;3.20;3.00;;;;;;;8.78;100.00;96341.47;5111719;28;20432;-57
2023/01/24 06:37:16;;;;;;;2.40;1.57;;;;;;;8.75;100.00;96341.94;5111625;28;20429;-57
2023/01/24 06:39:50;;;;;;;2.23;2.10;;;;;;;8.58;100.00;96345.53;5111035;28;20438;-58
2023/01/24 06:42:19;;;;;;;0.87;0.87;;;;;;;8.44;100.00;96344.16;5111737;28;20798;-58
2023/01/24 06:44:49;;;;;;;2.53;0.90;;;;;;;8.30;100.00;96335.66;5111669;28;20429;-57
2023/01/24 06:47:17;;;;;;;0.70;0.57;;;;;;;8.23;100.00;96348.16;5110960;28;20462;-57
2023/01/24 06:49:46;;;;;;;0.70;0.70;;;;;;;8.19;100.00;96344.38;5110787;28;20498;-57
2023/01/24 06:52:14;;;;;;;1.67;0.77;;;;;;;8.22;100.00;96343.91;5112042;28;21007;-61
2023/01/24 06:54:42;;;;;;;0.40;0.40;;;;;;;8.31;100.00;96350.47;5114885;28;20461;-57
2023/01/24 06:57:11;;;;;;;1.13;0.40;;;;;;;8.59;100.00;96350.59;5115289;28;20436;-57
2023/01/24 06:59:39;;;;;;;3.10;1.33;;;;;;;8.69;100.00;96316.47;5114952;28;20506;-57
2023/01/24 07:02:12;;;;;;;0.50;0.50;;;;;;;9.03;100.00;96353.63;5114949;28;20428;-57
2023/01/24 07:04:40;;;;;;;0.60;0.60;;;;;;;9.01;100.00;96353.03;5114230;28;20937;-57
2023/01/24 07:07:08;;;;;;;0.40;0.30;;;;;;;9.08;100.00;96359.03;5114935;28;20527;-57
2023/01/24 07:09:37;;;;;;;7.30;1.13;;;;;;;8.85;100.00;96321.00;5114866;28;20980;-57
2023/01/24 07:12:07;;;;;;;0.50;0.50;;;;;;;8.63;100.00;96311.28;5115285;28;20430;-57
2023/01/24 07:14:36;;;;;;;4.80;0.87;;;;;;;8.99;100.00;96347.19;5114712;28;20453;-57
2023/01/24 07:17:05;;;;;;;0.67;0.67;;;;;;;8.92;100.00;96355.25;5115067;28;20503;-57
2023/01/24 07:19:35;;;;;;;2.10;2.00;;;;;;;8.42;100.00;96368.19;5115123;28;20901;-57
2023/01/24 07:22:06;;;;;;;1.03;1.03;;;;;;;7.94;100.00;96359.59;5114790;28;20444;-57
2023/01/24 07:24:35;;;;;;;8.33;1.67;;;;;;;7.88;100.00;96371.06;5114677;28;20434;-56
2023/01/24 07:27:04;;;;;;;1.40;1.40;;;;;;;8.17;100.00;96363.06;5114516;28;20431;-57
2023/01/24 07:29:32;;;;;;;1.83;1.53;;;;;;;8.63;100.00;96375.50;5115090;28;20926;-56
2023/01/24 07:32:00;;;;;;;2.00;1.80;;;;;;;8.50;100.00;96374.97;5114784;28;20444;-56
2023/01/24 07:34:29;;;;;;;14.73;1.20;;;;;;;8.52;100.00;96378.97;5114569;28;20432;-56
2023/01/24 07:36:59;;;;;;;1.40;1.30;;;;;;;8.61;100.00;96382.88;5114132;28;20967;-56
2023/01/24 07:39:28;;;;;;;1.10;1.00;;;;;;;8.58;100.00;96378.03;5114262;28;20464;-56
2023/01/24 07:41:58;;;;;;;0.97;0.97;;;;;;;8.72;100.00;96374.16;5114836;28;20551;-57
2023/01/24 07:44:29;;;;;;;1.13;1.03;;;;;;;8.75;100.00;96389.53;5114665;28;20429;-57
2023/01/24 07:46:57;;;;;;;1.13;1.13;;;;;;;8.37;100.00;96376.00;5114642;28;20512;-57
2023/01/24 07:49:25;;;;;;;0.40;0.40;;;;;;;7.96;100.00;96334.59;5114773;28;20837;-57
2023/01/24 07:51:53;;;;;;;6.33;1.50;;;;;;;8.41;100.00;96390.34;5114122;28;20447;-56
2023/01/24 07:54:23;;;;;;;0.83;0.80;;;;;;;8.35;100.00;96382.53;5114256;28;20512;-56
2023/01/24 07:56:52;;;;;;;11.00;1.37;;;;;;;8.59;100.00;96384.94;5114278;28;20505;-56
2023/01/24 07:59:20;;;;;;;1.47;1.37;;;;;;;8.62;100.00;96392.41;5113614;28;20576;-56
2023/01/24 08:02:04;;;;;;;0.97;0.97;;;;;;;8.41;100.00;96395.63;5114063;28;20767;-56
2023/01/24 08:04:33;;;;;;;2.10;2.00;;;;;;;8.12;100.00;96399.91;5113656;28;20421;-57
2023/01/24 08:07:17;;;;;;;2.53;2.43;;;;;;;8.51;100.00;96400.34;5113487;28;20433;-57
2023/01/24 08:09:48;;;;;;;0.80;0.80;;;;;;;8.34;100.00;96378.28;5114004;28;20551;-56
2023/01/24 08:12:21;;;;;;;1.07;1.07;;;;;;;8.79;100.00;96401.25;5113571;28;20419;-57
2023/01/24 08:14:49;;;;;;;1.33;0.60;;;;;;;8.54;100.00;96398.03;5113828;28;20427;-56
2023/01/24 08:17:18;;;;;;;1.17;0.73;;;;;;;8.80;100.00;96386.19;5113767;28;20776;-57
2023/01/24 08:19:46;;;;;;;0.40;0.40;;;;;;;8.83;100.00;96402.38;5113674;28;20465;-56
2023/01/24 08:22:25;;;;;;;0.40;0.40;;;;;;;9.00;100.00;96399.84;5113147;28;20458;-57
2023/01/24 08:24:54;;;;;;;0.60;0.60;;;;;;;9.21;100.00;96401.88;5113935;28;20440;-57
2023/01/24 08:27:23;;;;;;;0.43;0.40;;;;;;;8.58;100.00;96408.94;5113925;28;20873;-57
2023/01/24 08:29:51;;;;;;;0.40;0.40;;;;;;;8.14;100.00;96400.50;5113250;28;20421;-57
2023/01/24 08:32:19;;;;;;;0.30;0.20;;;;;;;8.66;100.00;96411.25;5113297;28;20429;-57
2023/01/24 08:34:48;;;;;;;0.30;0.30;;;;;;;8.65;100.00;96410.44;5113265;28;20523;-57
2023/01/24 08:37:17;;;;;;;0.40;0.20;;;;;;;8.70;100.00;96407.13;5113578;28;20562;-57
2023/01/24 08:39:45;;;;;;;0.30;0.20;;;;;;;8.45;100.00;96404.69;5113248;28;20462;-57
2023/01/24 08:42:15;;;;;;;0.40;0.30;;;;;;;8.50;100.00;96399.53;5112341;28;20544;-57
2023/01/24 08:44:43;;;;;;;0.47;0.30;;;;;;;8.47;100.00;96418.50;5113329;28;20428;-57
2023/01/24 08:47:11;;;;;;;0.57;0.57;;;;;;;8.24;100.00;96418.44;5113371;28;20430;-57
2023/01/24 08:49:40;;;;;;;0.40;0.20;;;;;;;8.33;100.00;96425.00;5113118;28;20420;-57
2023/01/24 08:52:08;;;;;;;0.40;0.33;;;;;;;8.22;100.00;96415.22;5112754;28;20424;-57
2023/01/24 08:54:37;;;;;;;0.50;0.40;;;;;;;8.48;100.00;96420.09;5113089;28;20491;-57
2023/01/24 08:57:06;;;;;;;0.40;0.30;;;;;;;8.08;100.00;96417.25;5113138;28;20772;-57
2023/01/24 08:59:36;;;;;;;0.30;0.20;;;;;;;8.24;100.00;96421.06;5113199;28;20541;-57
2023/01/24 09:02:05;;;;;;;0.73;0.73;;;;;;;8.22;100.00;96415.22;5112397;28;20437;-57
2023/01/24 09:04:34;;;;;;;0.80;0.40;;;;;;;8.03;100.00;96409.19;5111836;28;20497;-57
2023/01/24 09:07:02;;;;;;;2.67;1.07;;;;;;;8.35;100.00;96407.09;5112489;28;20447;-57
2023/01/24 09:09:30;;;;;;;0.30;0.23;;;;;;;8.34;100.00;96412.63;5111697;28;20477;-57
2023/01/24 09:11:58;;;;;;;3.20;0.87;;;;;;;8.58;100.00;96411.59;5112143;28;20549;-57
2023/01/24 09:14:27;;;;;;;0.50;0.40;;;;;;;8.73;100.00;96412.75;5111961;28;20899;-58
2023/01/24 09:16:56;;;;;;;0.40;0.30;;;;;;;8.60;100.00;96406.91;5112786;28;20524;-57
2023/01/24 09:19:26;;;;;;;0.53;0.47;;;;;;;8.28;100.00;96401.94;5112682;28;20526;-57
2023/01/24 09:21:56;;;;;;;0.40;0.37;;;;;;;8.54;100.00;96408.63;5113032;28;20422;-57
2023/01/24 09:24:25;;;;;;;0.43;0.37;;;;;;;8.50;100.00;96407.44;5112482;28;20425;-57
2023/01/24 09:26:54;;;;;;;0.33;0.27;;;;;;;8.58;100.00;96396.53;5112315;28;20446;-57
2023/01/24 09:29:22;;;;;;;0.40;0.30;;;;;;;8.92;100.00;96400.22;5112288;28;20898;-57
2023/01/24 09:31:50;;;;;;;0.40;0.40;;;;;;;8.35;100.00;96398.38;5112418;28;20431;-57
2023/01/24 09:34:20;;;;;;;0.40;0.30;;;;;;;8.64;100.00;96398.28;5112213;28;20433;-57
2023/01/24 09:36:49;;;;;;;0.47;0.37;;;;;;;7.88;100.00;96319.06;5091750;28;20415;-57
2023/01/24 09:39:18;;;;;;;0.60;0.50;;;;;;;8.34;100.00;96391.47;5091619;28;20466;-57
2023/01/24 09:41:59;;;;;;;0.73;0.50;;;;;;;8.35;100.00;96393.88;5091702;28;20437;-57
2023/01/24 09:44:46;;;;;;;0.40;0.30;;;;;;;8.58;100.00;96388.63;5091710;28;20966;-57
2023/01/24 09:47:22;;;;;;;0.40;0.40;;;;;;;8.65;100.00;96388.50;5092010;28;20414;-56
2023/01/24 09:49:57;;;;;;;0.40;0.33;;;;;;;7.92;100.00;96366.94;5091439;28;20461;-57
2023/01/24 09:52:31;;;;;;;0.87;0.77;;;;;;;8.13;100.00;96375.13;5091468;28;20474;-57
2023/01/24 09:55:05;;;;;;;0.50;0.30;;;;;;;8.35;100.00;96374.63;5091048;28;20966;-57
2023/01/24 09:57:46;;;;;;;0.83;0.40;;;;;;;8.58;100.00;96372.75;5091304;28;20510;-57
2023/01/24 10:00:19;;;;;;;0.33;0.30;;;;;;;8.50;100.00;96372.31;5091577;28;20470;-56
2023/01/24 10:02:48;;;;;;;0.40;0.30;;;;;;;8.67;100.00;96368.75;5091385;28;20911;-57
2023/01/24 10:05:22;;;;;;;0.30;0.20;;;;;;;8.50;100.00;96373.09;5091296;28;20476;-57
2023/01/24 10:08:17;;;;;;;0.40;0.40;;;;;;;8.93;100.00;96370.88;5091349;28;20426;-57
2023/01/24 10:10:51;;;;;;;0.30;0.20;;;;;;;8.77;100.00;96360.22;5088783;28;20493;-57
2023/01/24 10:13:42;;;;;;;2.30;0.50;;;;;;;8.82;100.00;96358.50;5091431;28;20426;-57
2023/01/24 10:16:34;;;;;;;0.30;0.20;;;;;;;9.23;100.00;96354.84;5091295;28;20428;-57
2023/01/24 10:19:11;;;;;;;0.30;0.20;;;;;;;9.33;100.00;96347.09;5090899;28;20497;-57
2023/01/24 10:22:05;;;;;;;0.60;0.40;;;;;;;9.50;100.00;96341.84;5090569;28;20416;-57
2023/01/24 10:24:39;;;;;;;1.07;1.07;;;;;;;9.28;100.00;96341.72;5091451;28;20804;-56
2023/01/24 10:27:18;;;;;;;0.40;0.30;;;;;;;9.92;100.00;96347.59;5094069;28;20844;-57
2023/01/24 10:29:54;;;;;;;0.30;0.20;;;;;;;9.95;99.86;96347.13;5095502;28;20441;-56
2023/01/24 10:32:32;;;;;;;0.77;0.77;;;;;;;10.12;100.00;96332.88;5095093;28;20440;-57
2023/01/24 10:35:11;;;;;;;0.40;0.30;;;;;;;9.95;100.00;96331.22;5095313;28;20503;-57
2023/01/24 10:37:46;;;;;;;0.30;0.20;;;;;;;9.77;100.00;96326.16;5095082;28;20819;-57
2023/01/24 10:40:15;;;;;;;0.50;0.50;;;;;;;10.08;100.00;96309.72;5093809;28;20504;-57
2023/01/24 10:42:44;;;;;;;0.40;0.30;;;;;;;9.31;99.69;96128.81;5094394;28;20434;-56
2023/01/24 10:45:42;;;;;;;0.60;0.30;;;;;;;9.96;95.78;96286.00;5094475;28;20432;-57
2023/01/24 10:48:20;;;;;;;0.50;0.50;;;;;;;10.31;100.00;96306.13;5094628;28;20468;-56
2023/01/24 10:50:48;;;;;;;0.47;0.47;;;;;;;10.34;100.00;96313.59;5094365;28;20435;-56
2023/01/24 10:53:24;;;;;;;0.53;0.53;;;;;;;10.54;95.37;96309.38;5094328;28;20435;-56
2023/01/24 10:55:59;;;;;;;0.33;0.27;;;;;;;10.47;96.41;96297.34;5094241;28;20462;-56
2023/01/24 10:58:33;;;;;;;0.77;0.40;;;;;;;10.10;96.52;96297.84;5093566;28;20494;-56
2023/01/24 11:01:18;;;;;;;0.53;0.40;;;;;;;10.45;100.00;96302.09;5093797;28;20517;-56
2023/01/24 11:03:49;;;;;;;0.53;0.50;;;;;;;10.13;100.00;96196.75;5094221;28;20920;-56
2023/01/24 11:06:32;;;;;;;0.30;0.30;;;;;;;10.51;95.14;96293.16;5094448;28;20438;-57
2023/01/24 11:09:09;;;;;;;0.40;0.30;;;;;;;10.84;96.12;96240.84;5094011;28;20515;-57
2023/01/24 11:11:42;;;;;;;0.50;0.50;;;;;;;11.37;97.46;96287.03;5094090;28;20843;-56
2023/01/24 11:14:15;;;;;;;5.17;0.40;;;;;;;10.26;92.64;96215.97;5094195;28;20439;-56
2023/01/24 11:16:45;;;;;;;0.40;0.40;;;;;;;10.46;95.19;96291.25;5094200;28;20423;-57
2023/01/24 11:19:28;;;;;;;0.67;0.67;;;;;;;10.62;98.22;96301.03;5093777;28;20450;-56
2023/01/24 11:21:58;;;;;;;0.30;0.20;;;;;;;10.64;98.37;96288.31;5093594;28;20488;-56
2023/01/24 11:24:30;;;;;;;0.30;0.27;;;;;;;11.07;93.34;96274.25;5093980;28;20443;-56
2023/01/24 11:27:04;;;;;;;0.70;0.70;;;;;;;10.31;91.58;96274.31;5094276;28;20945;-56
2023/01/24 11:29:33;;;;;;;5.80;0.87;;;;;;;10.42;99.82;96278.75;5094684;28;20449;-57
2023/01/24 11:32:21;;;;;;;2.30;0.60;;;;;;;10.14;100.00;96258.47;5094110;28;20444;-55
2023/01/24 11:34:58;;;;;;;0.60;0.60;;;;;;;10.22;100.00;96259.91;5094458;28;20450;-56
2023/01/24 11:38:01;;;;;;;1.60;0.77;;;;;;;10.28;100.00;96267.66;5094024;28;20445;-56
2023/01/24 11:40:40;;;;;;;0.30;0.20;;;;;;;10.14;100.00;96267.19;5088518;28;20521;-56
2023/01/24 11:43:32;;;;;;;0.30;0.20;;;;;;;10.18;99.59;96265.69;5093299;28;20441;-56
2023/01/24 11:46:18;;;;;;;0.60;0.57;;;;;;;10.11;100.00;96262.38;5093674;28;20436;-56
2023/01/24 11:48:53;;;;;;;0.50;0.30;;;;;;;10.03;100.00;96281.31;5093845;28;20957;-56
2023/01/24 11:51:37;;;;;;;0.30;0.30;;;;;;;10.19;100.00;96264.63;5093825;28;20424;-56
2023/01/24 11:54:24;;;;;;;0.40;0.30;;;;;;;10.12;98.23;96256.03;5093784;28;20424;-57
2023/01/24 11:57:02;;;;;;;0.30;0.30;;;;;;;10.03;100.00;96264.63;5094155;28;20772;-56
2023/01/24 11:59:58;;;;;;;0.40;0.30;;;;;;;10.21;100.00;96290.88;5093842;28;20423;-56
2023/01/24 12:02:55;;;;;;;0.50;0.50;;;;;;;10.10;100.00;96260.75;5093606;28;20426;-56
2023/01/24 12:05:37;;;;;;;0.40;0.30;;;;;;;10.27;98.98;96239.56;5092766;28;20446;-56
2023/01/24 12:08:19;;;;;;;1.10;0.50;;;;;;;10.01;98.08;96269.38;5093476;28;20427;-56
2023/01/24 12:10:59;;;;;;;0.47;0.40;;;;;;;9.76;100.00;96253.91;5092366;28;20478;-56
2023/01/24 12:14:00;;;;;;;0.50;0.50;;;;;;;10.19;98.80;96251.38;5093280;28;20444;-56
2023/01/24 12:16:43;;;;;;;0.50;0.40;;;;;;;10.47;100.00;96249.66;5093442;28;20437;-56
2023/01/24 12:19:43;;;;;;;0.70;0.70;;;;;;;10.59;96.26;96243.19;5093654;28;20441;-56
2023/01/24 12:22:18;;;;;;;14.73;0.90;;;;;;;10.24;97.30;96247.22;5093336;28;20835;-57
2023/01/24 12:24:52;;;;;;;0.40;0.20;;;;;;;10.50;95.76;96249.16;5093187;28;20427;-57
2023/01/24 12:27:24;;;;;;;0.70;0.70;;;;;;;10.46;94.23;96237.44;5093231;28;20866;-57
2023/01/24 12:30:00;;;;;;;0.40;0.30;;;;;;;10.68;92.31;96230.28;5093160;28;20430;-57